Time;durP1;ratioP1;P1;durP2;ratioP2;P2;SDS_P1;SDS_P2;PMS_P1;PMS_P2;Temp;Humidity;BMP_temperature;BMP_pressure;BME280_temperature;BME280_humidity;BME280_pressure;Samples;Min_cycle;Max_cycle;Signal;HPM_P1;HPM_P2
2023/01/28 08:04:30;;;;;;;7.83;6.60;;;2.90;99.90;;;;;;6261492;22;20009;-83
2023/01/28 08:17:38;;;;;;;12.03;9.23;;;2.40;99.90;;;;;;6301036;22;20027;-83
2023/01/28 08:23:57;;;;;;;9.93;8.37;;;2.20;99.90;;;;;;6195208;22;49971;-81
2023/01/28 08:27:16;;;;;;;11.67;8.93;;;2.20;99.90;;;;;;6246912;22;40023;-83
2023/01/28 08:29:43;;;;;;;11.43;8.50;;;2.30;99.90;;;;;;6181563;22;39235;-80
2023/01/28 08:32:09;;;;;;;13.17;8.73;;;2.40;99.90;;;;;;6272507;22;37733;-79
2023/01/28 10:13:22;;;;;;;10.17;7.57;;;3.80;99.90;;;;;;6263167;22;20079;-81
2023/01/28 11:29:41;;;;;;;13.30;6.90;;;4.30;99.90;;;;;;6232081;22;20032;-82
2023/01/28 11:34:49;;;;;;;9.43;7.50;;;4.40;99.90;;;;;;6249708;22;20030;-80
2023/01/28 11:37:15;;;;;;;;;;;4.50;99.90;;;;;;6274268;22;39373;-78
2023/01/28 12:54:12;;;;;;;11.77;5.87;;;6.20;99.90;;;;;;6215482;22;20020;31
2023/01/28 12:56:43;;;;;;;7.87;5.33;;;6.30;99.90;;;;;;6260296;22;46977;-81
2023/01/28 12:59:45;;;;;;;8.87;6.00;;;6.40;99.90;;;;;;6214603;22;39032;-81
2023/01/28 14:08:24;;;;;;;9.43;6.23;;;6.10;99.90;;;;;;6280951;22;20019;-81
2023/01/28 14:11:36;;;;;;;10.70;6.57;;;6.20;99.90;;;;;;6275176;22;36186;-80
2023/01/28 14:14:23;;;;;;;7.27;5.20;;;6.20;99.90;;;;;;6268786;22;47047;-81
2023/01/28 14:16:55;;;;;;;7.53;4.43;;;6.20;99.90;;;;;;6268877;22;47212;-80
2023/01/28 14:19:36;;;;;;;6.73;4.57;;;6.30;99.90;;;;;;6268569;22;39063;-80
2023/01/28 14:22:09;;;;;;;8.07;5.30;;;6.30;99.90;;;;;;6269227;22;38340;-80
2023/01/28 14:24:39;;;;;;;10.43;7.37;;;6.30;99.90;;;;;;6266650;22;39596;-80
2023/01/28 14:27:21;;;;;;;7.30;6.13;;;6.30;99.90;;;;;;6261991;22;37452;-81
2023/01/28 14:30:14;;;;;;;8.20;6.43;;;6.30;99.90;;;;;;6264912;22;39836;-80
2023/01/28 14:32:49;;;;;;;9.00;6.20;;;6.40;99.90;;;;;;6272347;22;48481;-81
2023/01/28 14:35:36;;;;;;;11.37;6.80;;;6.50;99.90;;;;;;6264787;22;40849;-80
2023/01/28 14:38:11;;;;;;;7.90;6.40;;;6.50;99.90;;;;;;6267376;22;40507;-81
2023/01/28 14:40:38;;;;;;;8.10;7.00;;;6.40;99.90;;;;;;6270559;22;39195;-80
2023/01/28 14:43:07;;;;;;;9.43;7.00;;;6.30;99.90;;;;;;6271453;22;38323;-81
2023/01/28 14:45:57;;;;;;;9.20;6.77;;;6.20;99.90;;;;;;6269214;22;37671;-80
2023/01/28 14:49:04;;;;;;;9.60;6.50;;;6.10;99.90;;;;;;6262520;22;39029;-80
2023/01/28 14:51:50;;;;;;;6.20;4.30;;;6.10;99.90;;;;;;6122643;23;47186;-80
2023/01/28 14:54:41;;;;;;;7.10;4.70;;;6.00;99.90;;;;;;6255947;22;37453;-81
2023/01/28 14:57:32;;;;;;;6.00;4.30;;;5.90;99.90;;;;;;6270026;22;38933;-81
2023/01/28 15:00:00;;;;;;;7.30;5.57;;;5.90;99.90;;;;;;6267065;22;39782;-80
2023/01/28 15:02:29;;;;;;;9.77;7.30;;;5.80;99.90;;;;;;6294765;22;38587;-80
2023/01/28 15:05:10;;;;;;;9.50;6.93;;;5.80;99.90;;;;;;6258890;22;36080;-80
2023/01/28 15:07:37;;;;;;;9.07;6.97;;;5.60;99.90;;;;;;6271932;22;47013;-82
2023/01/28 15:10:15;;;;;;;9.10;7.33;;;5.60;99.90;;;;;;6273653;22;38727;-82
2023/01/28 15:12:46;;;;;;;9.80;7.73;;;5.50;99.90;;;;;;6277992;22;48567;-81
2023/01/28 15:15:38;;;;;;;9.70;7.80;;;5.40;99.90;;;;;;6266212;22;37993;-81
2023/01/28 15:18:22;;;;;;;8.97;7.30;;;5.60;99.90;;;;;;6268609;22;37925;-81
2023/01/28 15:20:54;;;;;;;9.20;7.30;;;5.60;99.90;;;;;;6272758;22;40273;-80
2023/01/28 15:23:30;;;;;;;8.27;6.95;;;5.70;99.90;;;;;;6261601;22;38270;-80
2023/01/28 15:25:56;;;;;;;8.90;7.33;;;5.70;99.90;;;;;;6301749;22;37565;-80
2023/01/28 15:28:30;;;;;;;9.63;6.93;;;5.70;99.90;;;;;;6262459;22;39574;-80
2023/01/28 15:30:56;;;;;;;10.00;7.43;;;5.70;99.90;;;;;;6295162;22;37823;-80
2023/01/28 15:33:23;;;;;;;11.27;7.47;;;5.70;99.90;;;;;;6296869;22;39468;-81
2023/01/28 15:35:53;;;;;;;8.90;7.47;;;5.70;99.90;;;;;;6273509;22;37979;-80
2023/01/28 15:38:20;;;;;;;20.07;9.17;;;5.70;99.90;;;;;;6273785;22;39893;-80
2023/01/28 15:40:58;;;;;;;8.97;7.60;;;5.60;99.90;;;;;;6274772;22;41733;-81
2023/01/28 15:43:36;;;;;;;10.13;8.33;;;5.60;99.90;;;;;;6272155;22;38163;-81
2023/01/28 15:46:03;;;;;;;8.97;7.40;;;5.70;99.90;;;;;;6298207;22;37688;-81
2023/01/28 15:48:34;;;;;;;12.53;8.87;;;5.70;99.90;;;;;;6298048;22;37426;-80
2023/01/28 15:51:07;;;;;;;10.50;7.97;;;5.50;99.90;;;;;;6298784;22;39440;-80
2023/01/28 15:53:45;;;;;;;16.17;9.77;;;5.50;99.90;;;;;;6263080;22;47017;-81
2023/01/28 15:56:14;;;;;;;10.63;8.83;;;5.40;99.90;;;;;;6273985;22;36043;-80
2023/01/28 15:58:41;;;;;;;10.70;8.97;;;5.50;99.90;;;;;;6261154;22;40186;-81
2023/01/28 16:01:07;;;;;;;11.17;9.07;;;5.40;99.90;;;;;;6272033;22;38055;-82
2023/01/28 16:03:40;;;;;;;10.63;8.27;;;5.40;99.90;;;;;;6275000;22;39920;-81
2023/01/28 16:06:17;;;;;;;11.27;8.50;;;5.50;99.90;;;;;;6256662;22;37802;-81
2023/01/28 16:08:54;;;;;;;13.57;8.27;;;5.40;99.90;;;;;;6270175;22;38745;-81
2023/01/28 16:11:33;;;;;;;10.80;8.67;;;5.40;99.90;;;;;;6274206;22;39611;-81
2023/01/28 16:14:00;;;;;;;11.30;8.47;;;5.30;99.90;;;;;;6273042;22;38812;-81
2023/01/28 16:16:35;;;;;;;13.73;9.50;;;5.30;99.90;;;;;;6271767;22;48240;-81
2023/01/28 16:19:06;;;;;;;12.63;8.90;;;5.30;99.90;;;;;;6276719;22;39428;-82
2023/01/28 16:21:37;;;;;;;13.00;9.47;;;5.30;99.90;;;;;;6270886;22;47352;-81
2023/01/28 16:24:24;;;;;;;10.97;9.00;;;5.30;99.90;;;;;;6271862;22;39329;-82
2023/01/28 16:27:03;;;;;;;13.77;9.63;;;5.30;99.90;;;;;;6275374;22;36433;-81
2023/01/28 16:29:30;;;;;;;12.97;9.43;;;5.30;99.90;;;;;;6256020;22;48345;-82
2023/01/28 16:32:01;;;;;;;15.57;10.10;;;5.30;99.90;;;;;;6273582;22;39440;-81
2023/01/28 16:34:28;;;;;;;11.87;10.00;;;5.20;99.90;;;;;;6281331;22;48792;-82
2023/01/28 16:36:58;;;;;;;12.70;9.37;;;5.20;99.90;;;;;;6289909;22;37861;-81
2023/01/28 16:39:29;;;;;;;13.53;10.30;;;5.20;99.90;;;;;;6291136;22;40876;-82
2023/01/28 16:41:55;;;;;;;13.20;10.53;;;5.20;99.90;;;;;;6291332;22;38094;-81
2023/01/28 16:44:22;;;;;;;14.53;11.40;;;5.10;99.90;;;;;;6285038;22;38013;-81
2023/01/28 16:46:48;;;;;;;15.63;10.57;;;5.10;99.90;;;;;;6293219;22;37969;-81
2023/01/28 16:49:14;;;;;;;14.87;11.10;;;5.10;99.90;;;;;;6285603;22;38799;-80
2023/01/28 16:51:44;;;;;;;13.03;9.93;;;5.00;99.90;;;;;;6299698;22;39695;-81
2023/01/28 16:54:15;;;;;;;16.77;11.03;;;5.00;99.90;;;;;;6289387;22;38988;-82
2023/01/28 16:56:42;;;;;;;14.03;11.00;;;5.00;99.90;;;;;;6299177;22;37237;-81
2023/01/28 16:59:10;;;;;;;12.93;9.80;;;5.00;99.90;;;;;;6287725;22;40672;-79
2023/01/28 17:01:36;;;;;;;12.93;9.87;;;5.00;99.90;;;;;;6279139;22;39004;-79
2023/01/28 17:04:08;;;;;;;16.60;10.85;;;4.90;99.90;;;;;;6287894;22;39691;-79
2023/01/28 17:06:40;;;;;;;14.67;10.90;;;4.90;99.90;;;;;;6285994;22;39546;-79
2023/01/28 17:09:07;;;;;;;13.43;11.02;;;4.90;99.90;;;;;;6281470;22;38467;-79
2023/01/28 17:11:33;;;;;;;13.83;10.87;;;4.90;99.90;;;;;;6281171;22;37536;-79
2023/01/28 17:14:00;;;;;;;14.83;11.37;;;4.80;99.90;;;;;;6268233;22;41505;-79
2023/01/28 17:16:27;;;;;;;16.00;12.03;;;4.80;99.90;;;;;;6271735;22;47736;-79
2023/01/28 17:18:54;;;;;;;16.63;12.97;;;4.80;99.90;;;;;;6273836;22;40859;-79
2023/01/28 17:21:21;;;;;;;16.80;12.80;;;4.80;99.90;;;;;;6280121;22;39159;-79
2023/01/28 17:23:47;;;;;;;16.33;12.07;;;4.80;99.90;;;;;;6279926;22;39379;-79
2023/01/28 17:26:14;;;;;;;18.07;12.50;;;4.80;99.90;;;;;;6279984;22;36461;-79
2023/01/28 17:28:41;;;;;;;16.07;11.90;;;4.80;99.90;;;;;;6275032;22;37790;-80
2023/01/28 17:31:13;;;;;;;17.33;13.03;;;4.80;99.90;;;;;;6276902;22;38172;-79
2023/01/28 17:33:42;;;;;;;18.10;13.70;;;4.80;99.90;;;;;;6283368;22;39100;-80
2023/01/28 17:36:08;;;;;;;16.83;13.47;;;4.80;99.90;;;;;;6280666;22;36364;-79
2023/01/28 17:38:35;;;;;;;18.10;13.23;;;4.80;99.90;;;;;;6279847;22;38821;-79
2023/01/28 17:41:12;;;;;;;14.77;11.53;;;4.80;99.90;;;;;;6274732;22;37836;-79
2023/01/28 17:43:41;;;;;;;16.77;12.87;;;4.80;99.90;;;;;;6260744;22;47131;-80
2023/01/28 17:46:13;;;;;;;16.40;12.83;;;4.70;99.90;;;;;;6278106;22;37198;-80
2023/01/28 17:48:39;;;;;;;16.50;12.63;;;4.70;99.90;;;;;;6273971;22;37975;-80
2023/01/28 17:51:06;;;;;;;16.83;12.43;;;4.70;99.90;;;;;;6282214;22;39145;-79
2023/01/28 17:53:32;;;;;;;19.40;12.23;;;4.60;99.90;;;;;;6284343;22;37629;-80
2023/01/28 17:55:59;;;;;;;17.17;13.03;;;4.60;99.90;;;;;;6286082;22;38044;-80
2023/01/28 17:58:25;;;;;;;16.40;12.90;;;4.70;99.90;;;;;;6276571;22;38156;-80
2023/01/28 18:00:51;;;;;;;21.97;13.97;;;4.60;99.90;;;;;;6283052;22;38157;-80
2023/01/28 18:03:17;;;;;;;19.17;14.23;;;4.60;99.90;;;;;;6280234;22;37681;-80
2023/01/28 18:05:43;;;;;;;18.53;13.70;;;4.60;99.90;;;;;;6281553;22;36967;-80
2023/01/28 18:08:10;;;;;;;17.00;13.37;;;4.60;99.90;;;;;;6273555;22;37917;-80
2023/01/28 18:10:36;;;;;;;19.20;13.70;;;4.60;99.90;;;;;;6278572;22;37983;-80
2023/01/28 18:13:02;;;;;;;18.13;12.97;;;4.60;99.90;;;;;;6285377;22;37685;-80
2023/01/28 18:15:28;;;;;;;17.47;13.73;;;4.60;99.90;;;;;;6279976;22;36733;-80
2023/01/28 18:17:55;;;;;;;18.40;13.70;;;4.60;99.90;;;;;;6279629;22;38521;-80
2023/01/28 18:20:21;;;;;;;18.63;13.70;;;4.50;99.90;;;;;;6283962;22;38836;-80
2023/01/28 18:22:48;;;;;;;17.77;13.93;;;4.60;99.90;;;;;;6286578;22;38982;-80
2023/01/28 18:25:16;;;;;;;18.90;14.73;;;4.60;99.90;;;;;;6275089;22;36423;-80
2023/01/28 18:27:43;;;;;;;16.23;13.57;;;4.60;99.90;;;;;;6283838;22;37620;-80
2023/01/28 18:30:10;;;;;;;17.13;13.37;;;4.60;99.90;;;;;;6284414;22;37996;-80
2023/01/28 18:32:36;;;;;;;16.90;13.47;;;4.60;99.90;;;;;;6285486;22;38564;-80
2023/01/28 18:35:05;;;;;;;19.90;14.10;;;4.60;99.90;;;;;;6279696;22;36754;-81
2023/01/28 18:37:31;;;;;;;20.07;13.87;;;4.60;99.90;;;;;;6282429;22;47430;-81
2023/01/28 18:39:57;;;;;;;18.57;13.57;;;4.60;99.90;;;;;;6283323;22;37805;-80
2023/01/28 18:42:24;;;;;;;20.60;14.77;;;4.50;99.90;;;;;;6285153;22;38171;-80
2023/01/28 18:44:50;;;;;;;19.00;14.47;;;4.60;99.90;;;;;;6275856;22;36432;-80
2023/01/28 18:47:16;;;;;;;18.33;13.07;;;4.60;99.90;;;;;;6281468;22;39188;-80
2023/01/28 18:49:43;;;;;;;16.57;13.43;;;4.60;99.90;;;;;;6281489;22;38186;-80
2023/01/28 18:52:10;;;;;;;18.13;13.07;;;4.60;99.90;;;;;;6283637;22;20047;-81
2023/01/28 18:54:36;;;;;;;20.30;14.47;;;4.60;99.90;;;;;;6284243;22;39005;-80
2023/01/28 18:57:07;;;;;;;16.77;13.10;;;4.60;99.90;;;;;;6279824;22;39458;-80
2023/01/28 18:59:33;;;;;;;21.40;15.07;;;4.60;99.90;;;;;;6274474;22;38645;-81
2023/01/28 19:02:00;;;;;;;18.40;13.57;;;4.60;99.90;;;;;;6286956;22;37570;-81
2023/01/28 19:04:27;;;;;;;22.27;15.97;;;4.60;99.90;;;;;;6281537;22;47744;-81
2023/01/28 19:06:57;;;;;;;19.40;12.90;;;4.60;99.90;;;;;;6287989;22;38332;-80
2023/01/28 19:09:23;;;;;;;20.00;16.17;;;4.50;99.90;;;;;;6278921;22;39198;-80
2023/01/28 19:11:49;;;;;;;21.43;14.20;;;4.50;99.90;;;;;;6288278;22;40098;-80
2023/01/28 19:14:16;;;;;;;20.50;15.47;;;4.50;99.90;;;;;;6281578;22;36953;-81
2023/01/28 19:16:43;;;;;;;19.70;14.27;;;4.50;99.90;;;;;;6286502;22;38500;-80
2023/01/28 19:19:09;;;;;;;19.37;14.17;;;4.50;99.90;;;;;;6280668;22;38429;-79
2023/01/28 19:21:36;;;;;;;22.07;15.57;;;4.50;99.90;;;;;;6291086;22;38859;-81
2023/01/28 19:24:08;;;;;;;21.07;16.00;;;4.50;99.90;;;;;;6283494;22;35685;-80
2023/01/28 19:26:36;;;;;;;23.08;15.63;;;4.40;99.90;;;;;;6285000;22;37858;-80
2023/01/28 19:29:06;;;;;;;21.90;16.17;;;4.50;99.90;;;;;;6284817;22;37924;-81
2023/01/28 19:31:36;;;;;;;20.60;15.13;;;4.40;99.90;;;;;;6288577;22;37450;-81
2023/01/28 19:34:05;;;;;;;20.70;16.17;;;4.40;99.90;;;;;;6279967;22;36714;-81
2023/01/28 19:36:33;;;;;;;22.00;16.40;;;4.40;99.90;;;;;;6285338;22;39517;-80
2023/01/28 19:39:02;;;;;;;24.27;16.97;;;4.40;99.90;;;;;;6293284;22;38986;-80
2023/01/28 19:41:31;;;;;;;27.23;16.93;;;4.40;99.90;;;;;;6272585;22;47187;-80
2023/01/28 19:43:58;;;;;;;25.50;17.20;;;4.40;99.90;;;;;;6286384;22;36896;-80
2023/01/28 19:46:24;;;;;;;22.77;16.50;;;4.40;99.90;;;;;;6281949;22;39035;-81
2023/01/28 19:48:52;;;;;;;23.33;17.40;;;4.40;99.90;;;;;;6290387;22;38943;-80
2023/01/28 19:51:19;;;;;;;23.13;16.73;;;4.30;99.90;;;;;;6285274;22;40441;-80
2023/01/28 19:53:48;;;;;;;23.63;16.30;;;4.40;99.90;;;;;;6285933;22;36491;-80
2023/01/28 19:56:18;;;;;;;24.33;17.63;;;4.30;99.90;;;;;;6273700;22;37432;-80
2023/01/28 19:58:45;;;;;;;24.20;17.43;;;4.30;99.90;;;;;;6278147;22;38515;-81
2023/01/28 20:01:18;;;;;;;22.30;17.00;;;4.30;99.90;;;;;;6284461;22;39007;-80
2023/01/28 20:03:44;;;;;;;23.27;17.85;;;4.30;99.90;;;;;;6279567;22;36922;-80
2023/01/28 20:06:13;;;;;;;24.63;18.00;;;4.30;99.90;;;;;;6282279;22;38811;-80
2023/01/28 20:08:40;;;;;;;22.17;16.97;;;4.30;99.90;;;;;;6285364;22;38971;-81
2023/01/28 20:11:08;;;;;;;24.63;17.20;;;4.40;99.90;;;;;;6279938;22;37581;-81
2023/01/28 20:13:35;;;;;;;24.73;17.70;;;4.30;99.90;;;;;;6282530;22;36119;-81
2023/01/28 20:16:06;;;;;;;24.23;18.23;;;4.30;99.90;;;;;;6283665;22;38018;-80
2023/01/28 20:18:33;;;;;;;22.50;17.40;;;4.30;99.90;;;;;;6281316;22;37989;-80
2023/01/28 20:21:00;;;;;;;25.10;17.53;;;4.30;99.90;;;;;;6282357;22;39890;-80
2023/01/28 20:23:26;;;;;;;23.70;17.50;;;4.30;99.90;;;;;;6277686;22;36905;-80
2023/01/28 20:25:57;;;;;;;24.83;17.80;;;4.30;99.90;;;;;;6287132;22;37971;-80
2023/01/28 20:28:24;;;;;;;25.33;17.10;;;4.30;99.90;;;;;;6282469;22;39253;-80
2023/01/28 20:30:54;;;;;;;23.77;17.60;;;4.30;99.90;;;;;;6269582;22;37717;-81
2023/01/28 20:33:24;;;;;;;23.73;17.70;;;4.30;99.90;;;;;;6283510;22;38830;-81
2023/01/28 20:36:00;;;;;;;25.37;17.57;;;4.30;99.90;;;;;;6283474;22;40163;-81
2023/01/28 20:38:26;;;;;;;24.30;17.73;;;4.30;99.90;;;;;;6280033;22;37562;-81
2023/01/28 20:40:52;;;;;;;25.23;17.63;;;4.40;99.90;;;;;;6286183;22;39748;-80
2023/01/28 20:43:20;;;;;;;23.70;17.37;;;4.30;99.90;;;;;;6283680;22;37686;-80
2023/01/28 20:45:46;;;;;;;26.47;18.33;;;4.30;99.90;;;;;;6285401;22;38463;-80
2023/01/28 20:48:12;;;;;;;25.33;17.83;;;4.30;99.90;;;;;;6284182;22;39611;-80
2023/01/28 20:50:38;;;;;;;26.17;18.40;;;4.30;99.90;;;;;;6288462;22;37627;-80
2023/01/28 20:53:07;;;;;;;32.03;18.43;;;4.30;99.90;;;;;;6284656;22;36252;-82
2023/01/28 20:55:33;;;;;;;30.07;20.93;;;4.30;99.90;;;;;;6288163;22;37668;-80
2023/01/28 20:58:00;;;;;;;29.23;18.70;;;4.20;99.90;;;;;;6291195;22;37404;-81
2023/01/28 21:00:26;;;;;;;28.47;19.13;;;4.30;99.90;;;;;;6286187;22;38935;-80
2023/01/28 21:02:53;;;;;;;29.43;20.13;;;4.30;99.90;;;;;;6286913;22;37562;-81
2023/01/28 21:05:19;;;;;;;28.07;20.40;;;4.30;99.90;;;;;;6288228;22;39686;-81
2023/01/28 21:07:45;;;;;;;26.73;18.37;;;4.30;99.90;;;;;;6294973;22;38392;-81
2023/01/28 21:10:11;;;;;;;31.93;19.03;;;4.30;99.90;;;;;;6294243;22;37394;-80
2023/01/28 21:12:37;;;;;;;28.50;19.10;;;4.30;99.90;;;;;;6290337;22;36596;-80
2023/01/28 21:15:06;;;;;;;26.30;18.73;;;4.30;99.90;;;;;;6288956;22;37928;-81
2023/01/28 21:17:32;;;;;;;24.07;18.23;;;4.30;99.90;;;;;;6289633;22;47100;-80
2023/01/28 21:19:59;;;;;;;27.87;19.10;;;4.30;99.90;;;;;;6287674;22;37583;-80
2023/01/28 21:22:25;;;;;;;28.50;19.47;;;4.30;99.90;;;;;;6288416;22;38956;-80
2023/01/28 21:24:51;;;;;;;26.37;19.60;;;4.30;99.90;;;;;;6287492;22;38670;-80
2023/01/28 21:27:17;;;;;;;28.00;19.03;;;4.30;99.90;;;;;;6290684;22;37880;-80
2023/01/28 21:29:44;;;;;;;26.43;19.00;;;4.30;99.90;;;;;;6285292;22;37260;-80
2023/01/28 21:32:10;;;;;;;35.37;19.80;;;4.30;99.90;;;;;;6284916;22;35913;-81
2023/01/28 21:34:36;;;;;;;26.00;18.90;;;4.30;99.90;;;;;;6288017;22;38045;-79
2023/01/28 21:37:02;;;;;;;30.93;20.03;;;4.30;99.90;;;;;;6287288;22;38998;-80
2023/01/28 21:39:28;;;;;;;28.20;20.80;;;4.40;99.90;;;;;;6287025;22;39446;-81
2023/01/28 21:41:54;;;;;;;34.27;20.50;;;4.30;99.90;;;;;;6288478;22;36560;-81
2023/01/28 21:44:20;;;;;;;30.63;20.40;;;4.30;99.90;;;;;;6281378;22;37521;-80
2023/01/28 21:46:48;;;;;;;29.63;20.90;;;4.30;99.90;;;;;;6275822;22;38895;-81
2023/01/28 21:49:14;;;;;;;31.20;20.27;;;4.30;99.90;;;;;;6281703;22;38482;-80
2023/01/28 21:51:46;;;;;;;30.97;20.73;;;4.30;99.90;;;;;;6283498;22;37962;-80
2023/01/28 21:54:18;;;;;;;30.02;20.30;;;4.30;99.90;;;;;;6276778;22;39658;-80
2023/01/28 21:56:45;;;;;;;29.87;21.10;;;4.30;99.90;;;;;;6278269;22;39407;-80
2023/01/28 21:59:27;;;;;;;30.73;20.73;;;4.40;99.90;;;;;;6278232;22;38903;-80
2023/01/28 22:01:58;;;;;;;31.25;22.05;;;4.40;99.90;;;;;;6283594;22;41071;-79
2023/01/28 22:04:28;;;;;;;28.53;19.80;;;4.30;99.90;;;;;;6281634;22;39622;-80
2023/01/28 22:06:54;;;;;;;29.43;20.53;;;4.30;99.90;;;;;;6284169;22;39124;-80
2023/01/28 22:09:21;;;;;;;26.57;19.10;;;4.30;99.90;;;;;;6278729;22;37725;-80
2023/01/28 22:11:47;;;;;;;29.47;20.90;;;4.30;99.90;;;;;;6283229;22;36707;-79
2023/01/28 22:14:14;;;;;;;30.40;20.10;;;4.30;99.90;;;;;;6274724;22;39611;-80
2023/01/28 22:16:40;;;;;;;30.83;20.40;;;4.30;99.90;;;;;;6282493;22;37748;-80
2023/01/28 22:19:06;;;;;;;32.20;20.73;;;4.30;99.90;;;;;;6280559;22;38230;-80
2023/01/28 22:21:39;;;;;;;28.30;19.17;;;4.30;99.90;;;;;;6280939;22;36202;-80
2023/01/28 22:24:13;;;;;;;29.08;19.90;;;4.30;99.90;;;;;;6283848;22;38896;-80
2023/01/28 22:26:40;;;;;;;31.17;19.60;;;4.30;99.90;;;;;;6281497;22;38056;-80
2023/01/28 22:29:07;;;;;;;28.10;19.67;;;4.30;99.90;;;;;;6280095;22;37690;-80
2023/01/28 22:31:33;;;;;;;31.57;21.23;;;4.30;99.90;;;;;;6285394;22;37780;-81
2023/01/28 22:33:59;;;;;;;31.20;21.07;;;4.30;99.90;;;;;;6289505;22;38036;-81
2023/01/28 22:36:26;;;;;;;28.17;20.70;;;4.30;99.90;;;;;;6287862;22;37997;-81
2023/01/28 22:38:53;;;;;;;30.03;19.80;;;4.30;99.90;;;;;;6287468;22;39068;-80
2023/01/28 22:41:24;;;;;;;29.43;20.63;;;4.40;99.90;;;;;;6286838;22;36437;-81
2023/01/28 22:43:53;;;;;;;31.77;21.30;;;4.40;99.90;;;;;;6289253;22;38156;-81
2023/01/28 22:46:21;;;;;;;33.73;21.30;;;4.40;99.90;;;;;;6290261;22;37680;-81
2023/01/28 22:48:48;;;;;;;27.93;20.10;;;4.40;99.90;;;;;;6284085;22;39068;-79
2023/01/28 22:51:17;;;;;;;30.20;21.10;;;4.30;99.90;;;;;;6276390;22;36624;-79
2023/01/28 22:53:45;;;;;;;29.77;21.27;;;4.40;99.90;;;;;;6272855;22;39768;-79
2023/01/28 22:56:11;;;;;;;26.93;19.20;;;4.40;99.90;;;;;;6279265;22;37492;-79
2023/01/28 22:58:37;;;;;;;30.30;20.40;;;4.40;99.90;;;;;;6282517;22;38436;-79
2023/01/28 23:01:04;;;;;;;27.67;20.77;;;4.40;99.90;;;;;;6265146;22;39126;-80
2023/01/28 23:03:31;;;;;;;31.00;20.00;;;4.30;99.90;;;;;;6281923;22;38691;-80
2023/01/28 23:05:58;;;;;;;28.20;20.07;;;4.30;99.90;;;;;;6282624;22;39416;-80
2023/01/28 23:08:25;;;;;;;29.23;19.57;;;4.30;99.90;;;;;;6278691;22;40584;-79
2023/01/28 23:10:56;;;;;;;31.40;21.20;;;4.40;99.90;;;;;;6281275;22;38250;-80
2023/01/28 23:13:23;;;;;;;30.23;20.80;;;4.30;99.90;;;;;;6274769;22;38688;-80
2023/01/28 23:24:23;;;;;;;28.13;19.80;;;4.40;99.90;;;;;;6276632;22;39689;-80
2023/01/28 23:27:08;;;;;;;30.30;20.17;;;4.40;99.90;;;;;;6277794;22;39150;-79
2023/01/28 23:29:34;;;;;;;26.07;18.47;;;4.40;99.90;;;;;;6294593;22;47151;-79
2023/01/28 23:32:09;;;;;;;27.00;18.77;;;4.40;99.90;;;;;;6281236;22;37263;-79
2023/01/28 23:34:40;;;;;;;28.27;19.63;;;4.40;99.90;;;;;;6276474;22;48799;-80
2023/01/28 23:37:08;;;;;;;28.53;19.00;;;4.50;99.90;;;;;;6281046;22;37852;-80
2023/01/28 23:39:35;;;;;;;23.07;17.37;;;4.50;99.90;;;;;;6282363;22;38558;-80
2023/01/28 23:42:09;;;;;;;27.33;18.87;;;4.40;99.90;;;;;;6278943;22;37855;-80
2023/01/28 23:44:35;;;;;;;26.87;18.90;;;4.50;99.90;;;;;;6276697;22;47264;-80
2023/01/28 23:47:01;;;;;;;23.27;17.47;;;4.50;99.90;;;;;;6278981;22;40013;-80
2023/01/28 23:49:27;;;;;;;24.53;18.53;;;4.50;99.90;;;;;;6279239;22;48131;-81
2023/01/28 23:51:53;;;;;;;24.67;17.30;;;4.50;99.90;;;;;;6284455;22;37576;-81
2023/01/28 23:54:19;;;;;;;28.30;17.73;;;4.50;99.90;;;;;;6286228;22;39183;-81
2023/01/28 23:56:45;;;;;;;25.83;17.73;;;4.50;99.90;;;;;;6280633;22;37613;-80
2023/01/28 23:59:11;;;;;;;28.87;18.83;;;4.50;99.90;;;;;;6278028;22;37408;-80
